Time;durP1;ratioP1;P1;durP2;ratioP2;P2;SDS_P1;SDS_P2;PMS_P1;PMS_P2;Temp;Humidity;BMP_temperature;BMP_pressure;BME280_temperature;BME280_humidity;BME280_pressure;Samples;Min_cycle;Max_cycle;Signal;HPM_P1;HPM_P2
2021/05/22 00:01:37;;;;;;;1.35;0.50;;;;;;;18.36;38.10;99827.03;5363333;26;20133;-80
2021/05/22 00:04:04;;;;;;;1.62;0.35;;;;;;;18.35;38.40;99825.31;5365039;26;20060;-80
2021/05/22 00:06:31;;;;;;;1.65;0.43;;;;;;;18.50;38.13;99828.16;5365240;26;20123;-81
2021/05/22 00:08:58;;;;;;;0.82;0.35;;;;;;;18.45;38.09;99814.25;5363443;26;20101;-80
2021/05/22 00:11:25;;;;;;;0.73;0.50;;;;;;;18.42;38.00;99815.25;5363154;26;20079;-81
2021/05/22 00:13:52;;;;;;;2.67;0.70;;;;;;;18.50;37.80;99806.88;5363720;26;20067;-81
2021/05/22 00:16:19;;;;;;;1.58;0.60;;;;;;;18.37;37.66;99810.13;5363346;26;20074;-81
2021/05/22 00:18:46;;;;;;;0.47;0.30;;;;;;;18.51;37.61;99803.31;5363189;26;20067;-80
2021/05/22 00:21:13;;;;;;;1.37;0.40;;;;;;;18.55;37.75;99797.75;5363120;26;20056;-81
2021/05/22 00:23:40;;;;;;;3.08;0.40;;;;;;;18.68;37.56;99802.47;5363843;26;20078;-81
2021/05/22 00:26:08;;;;;;;1.77;0.77;;;;;;;18.57;37.95;99809.19;5363737;26;20052;-81
2021/05/22 00:28:34;;;;;;;1.33;0.50;;;;;;;18.63;37.98;99797.38;5363652;26;20070;-81
2021/05/22 00:31:01;;;;;;;5.00;0.80;;;;;;;18.41;38.21;99794.03;5363375;26;20065;-81
2021/05/22 00:33:31;;;;;;;3.50;0.98;;;;;;;18.61;37.96;99793.94;5365235;26;20068;-80
2021/05/22 00:35:58;;;;;;;1.05;0.40;;;;;;;18.33;38.47;99792.59;5363804;26;20056;-80
2021/05/22 00:38:25;;;;;;;1.50;0.40;;;;;;;18.39;38.53;99791.47;5363576;26;20074;-81
2021/05/22 00:40:52;;;;;;;0.95;0.70;;;;;;;18.22;39.13;99788.72;5363350;26;20120;-80
2021/05/22 00:43:19;;;;;;;1.52;0.30;;;;;;;18.29;38.85;99775.06;5363259;26;20103;-81
2021/05/22 00:45:46;;;;;;;0.77;0.32;;;;;;;18.12;38.97;99780.34;5363478;26;20079;-80
2021/05/22 00:48:13;;;;;;;1.65;0.40;;;;;;;18.19;38.71;99781.75;5363588;26;20078;-81
2021/05/22 00:50:42;;;;;;;1.70;0.70;;;;;;;18.14;38.71;99781.09;5363684;26;20159;-81
2021/05/22 00:53:10;;;;;;;0.73;0.40;;;;;;;17.99;39.05;99779.16;5363587;26;21111;-81
2021/05/22 00:55:37;;;;;;;2.15;0.40;;;;;;;18.04;39.00;99783.34;5364400;26;20124;-81
2021/05/22 00:58:05;;;;;;;2.45;0.50;;;;;;;17.83;40.06;99790.50;5363759;26;20134;-80
2021/05/22 01:00:47;;;;;;;4.15;0.77;;;;;;;17.93;40.57;99793.59;5364081;26;20059;-80
2021/05/22 01:03:21;;;;;;;1.27;0.55;;;;;;;17.55;41.99;99800.59;5365116;26;20056;-80
2021/05/22 01:05:48;;;;;;;1.80;0.60;;;;;;;17.57;42.24;99809.38;5363613;26;20131;-80
2021/05/22 01:08:22;;;;;;;1.35;0.60;;;;;;;17.65;42.32;99816.06;5363756;26;20078;-81
2021/05/22 01:11:02;;;;;;;1.12;0.40;;;;;;;17.12;43.75;99819.25;5363329;26;20084;-80
2021/05/22 01:13:35;;;;;;;1.00;0.60;;;;;;;17.02;44.33;99810.78;5363682;26;20082;-81
2021/05/22 01:16:02;;;;;;;2.05;0.70;;;;;;;17.10;44.09;99813.13;5363594;26;20092;-82
2021/05/22 01:18:31;;;;;;;1.40;0.55;;;;;;;17.14;44.26;99805.88;5364790;26;20052;-82
2021/05/22 01:21:03;;;;;;;0.75;0.52;;;;;;;17.07;43.98;99801.78;5363456;26;20111;-81
2021/05/22 01:23:32;;;;;;;1.05;0.70;;;;;;;16.90;44.53;99795.37;5363609;26;20056;-81
2021/05/22 01:25:59;;;;;;;1.85;0.50;;;;;;;17.10;43.74;99791.03;5363409;26;20117;-81
2021/05/22 01:28:27;;;;;;;2.90;0.68;;;;;;;17.43;42.94;99796.69;5364697;26;20060;-81
2021/05/22 01:30:54;;;;;;;1.45;0.55;;;;;;;17.59;42.65;99789.78;5363780;26;20063;-81
2021/05/22 01:33:22;;;;;;;2.35;0.50;;;;;;;17.57;42.81;99785.47;5363795;26;20479;-81
2021/05/22 01:35:50;;;;;;;0.70;0.32;;;;;;;17.54;43.14;99785.59;5363629;26;20052;-81
2021/05/22 01:38:17;;;;;;;1.45;0.50;;;;;;;17.56;43.09;99783.72;5363974;26;20070;-81
2021/05/22 01:40:44;;;;;;;1.25;0.32;;;;;;;17.62;43.12;99772.84;5363587;26;20342;-80
2021/05/22 01:43:11;;;;;;;1.10;0.57;;;;;;;17.58;43.68;99780.06;5363445;26;20063;-81
2021/05/22 01:45:41;;;;;;;2.83;0.60;;;;;;;17.78;43.04;99765.91;5363704;26;20110;-81
2021/05/22 01:48:14;;;;;;;1.70;0.60;;;;;;;17.75;43.54;99775.81;5363201;26;20105;-81
2021/05/22 01:50:48;;;;;;;3.33;0.88;;;;;;;17.58;43.92;99766.78;5363497;26;20445;-81
2021/05/22 01:53:17;;;;;;;1.30;0.55;;;;;;;17.62;43.74;99760.41;5364473;26;20473;-81
2021/05/22 01:55:47;;;;;;;1.73;0.43;;;;;;;17.61;43.71;99765.78;5363624;26;20060;-81
2021/05/22 01:58:14;;;;;;;2.55;0.70;;;;;;;17.74;43.68;99753.69;5364861;26;20064;-81
2021/05/22 02:00:45;;;;;;;1.77;0.40;;;;;;;17.84;43.04;99757.66;5363775;26;20075;-80
2021/05/22 02:03:18;;;;;;;1.92;0.43;;;;;;;17.86;43.20;99755.81;5363277;26;20076;-81
2021/05/22 02:05:47;;;;;;;2.12;0.62;;;;;;;17.28;44.98;99755.72;5363677;26;20527;-81
2021/05/22 02:08:19;;;;;;;2.92;0.80;;;;;;;17.08;45.94;99745.97;5362979;26;20055;-80
2021/05/22 02:10:50;;;;;;;4.05;0.62;;;;;;;17.35;44.63;99749.19;5363153;26;20060;-80
2021/05/22 02:13:19;;;;;;;0.93;0.50;;;;;;;17.25;44.29;99742.59;5363144;26;20083;-81
2021/05/22 02:15:58;;;;;;;2.05;0.68;;;;;;;17.48;43.77;99742.44;5363836;26;20551;-80
2021/05/22 02:18:31;;;;;;;;;;;;;;;17.18;44.16;99739.34;5364764;26;20074;-81
2021/05/22 02:21:00;;;;;;;3.08;0.70;;;;;;;17.25;43.37;99748.75;5382450;26;19983;-81
2021/05/22 02:23:30;;;;;;;0.50;0.40;;;;;;;17.33;43.32;99751.09;5363773;26;20063;-81
2021/05/22 02:25:59;;;;;;;1.02;0.50;;;;;;;17.05;44.15;99747.88;5366672;26;20052;-81
2021/05/22 02:28:32;;;;;;;3.78;0.60;;;;;;;16.96;44.43;99751.78;5365201;26;20052;-81
2021/05/22 02:31:01;;;;;;;2.30;0.82;;;;;;;17.24;43.80;99756.81;5364584;26;20039;-81
2021/05/22 02:33:30;;;;;;;3.45;0.70;;;;;;;17.13;44.16;99759.06;5364774;26;20134;-80
2021/05/22 02:35:58;;;;;;;2.47;0.60;;;;;;;16.48;46.30;99753.72;5364342;26;20130;-81
2021/05/22 02:38:29;;;;;;;0.85;0.60;;;;;;;17.05;44.48;99762.00;5364775;26;20055;-80
2021/05/22 02:40:59;;;;;;;1.50;0.57;;;;;;;16.54;46.24;99760.56;5364905;26;20484;-81
2021/05/22 02:43:29;;;;;;;2.42;0.50;;;;;;;16.77;45.41;99759.69;5364660;26;20029;-81
2021/05/22 02:45:57;;;;;;;1.58;0.70;;;;;;;17.22;44.87;99764.81;5364935;26;20493;-81
2021/05/22 02:48:25;;;;;;;1.85;0.77;;;;;;;16.79;46.07;99769.31;5364735;26;20067;-80
2021/05/22 02:50:52;;;;;;;1.35;0.60;;;;;;;16.42;47.82;99774.34;5364240;26;20076;-81
2021/05/22 02:53:23;;;;;;;2.12;0.60;;;;;;;16.51;46.95;99774.81;5364457;26;20071;-80
2021/05/22 02:55:51;;;;;;;1.33;0.50;;;;;;;16.40;47.28;99773.53;5366308;26;20126;-81
2021/05/22 02:58:19;;;;;;;1.50;0.70;;;;;;;16.32;47.83;99774.69;5364378;26;20792;-81
2021/05/22 03:00:48;;;;;;;3.65;0.50;;;;;;;16.81;47.37;99771.87;5365692;26;20060;-81
2021/05/22 03:03:17;;;;;;;2.70;0.60;;;;;;;16.54;50.21;99777.34;5365576;26;20056;-80
2021/05/22 03:05:44;;;;;;;4.78;0.85;;;;;;;16.45;49.54;99783.03;5365239;26;20545;-80
2021/05/22 03:08:11;;;;;;;1.08;0.40;;;;;;;16.64;50.52;99787.59;5365339;26;20059;-80
2021/05/22 03:10:38;;;;;;;3.33;0.70;;;;;;;16.48;49.41;99793.50;5363794;26;20143;-80
2021/05/22 03:13:05;;;;;;;0.88;0.70;;;;;;;15.83;50.73;99789.81;5365332;26;20068;-80
2021/05/22 03:15:33;;;;;;;0.80;0.43;;;;;;;16.08;50.92;99795.03;5366066;26;20060;-79
2021/05/22 03:18:17;;;;;;;1.87;0.80;;;;;;;15.77;52.07;99800.63;5363710;26;20694;-80
2021/05/22 03:20:49;;;;;;;1.83;0.90;;;;;;;16.06;52.81;99806.62;5363507;26;20061;-81
2021/05/22 03:23:35;;;;;;;1.52;0.60;;;;;;;15.79;52.72;99809.38;5364773;26;20442;-80
2021/05/22 03:26:19;;;;;;;1.35;0.60;;;;;;;15.73;53.14;99798.13;5365187;26;20392;-80
2021/05/22 03:28:46;;;;;;;2.65;0.73;;;;;;;15.22;54.32;99808.69;5365686;26;20078;-80
2021/05/22 03:31:13;;;;;;;3.92;0.65;;;;;;;15.30;55.31;99811.09;5365126;26;20116;-81
2021/05/22 03:33:40;;;;;;;4.70;1.40;;;;;;;15.57;55.09;99813.69;5365208;26;20384;-80
2021/05/22 03:36:07;;;;;;;3.25;0.77;;;;;;;15.24;54.01;99815.75;5365245;26;20402;-80
2021/05/22 03:38:34;;;;;;;1.37;0.40;;;;;;;15.11;55.02;99818.78;5365512;26;20048;-81
2021/05/22 03:41:01;;;;;;;2.58;0.80;;;;;;;14.92;55.39;99813.25;5365633;26;20082;-80
2021/05/22 03:43:28;;;;;;;2.58;0.80;;;;;;;15.63;52.62;99813.47;5365587;26;20064;-80
2021/05/22 03:45:55;;;;;;;3.00;0.70;;;;;;;15.58;53.94;99826.88;5365884;26;20052;-80
2021/05/22 03:48:22;;;;;;;2.97;0.70;;;;;;;15.69;53.27;99821.22;5365790;26;20520;-81
2021/05/22 03:50:49;;;;;;;1.70;0.50;;;;;;;15.64;53.20;99826.66;5365661;26;20116;-80
2021/05/22 03:53:16;;;;;;;1.60;0.60;;;;;;;15.67;53.15;99820.38;5364452;26;20072;-80
2021/05/22 03:55:43;;;;;;;0.65;0.50;;;;;;;15.52;53.08;99821.78;5364000;26;20064;-79
2021/05/22 03:58:11;;;;;;;3.35;0.73;;;;;;;15.51;52.53;99830.66;5365439;26;20504;-81
2021/05/22 04:00:37;;;;;;;1.55;0.50;;;;;;;15.31;54.45;99827.84;5364057;26;20064;-81
2021/05/22 04:03:06;;;;;;;1.37;0.40;;;;;;;15.42;52.31;99825.69;5363946;26;20735;-80
2021/05/22 04:05:36;;;;;;;3.58;0.50;;;;;;;15.37;50.12;99833.78;5365734;26;20523;-80
2021/05/22 04:08:03;;;;;;;2.50;0.80;;;;;;;15.36;51.02;99841.78;5365581;26;20044;-80
2021/05/22 04:10:30;;;;;;;0.95;0.60;;;;;;;15.40;51.68;99830.16;5365710;26;20056;-80
2021/05/22 04:12:57;;;;;;;0.80;0.35;;;;;;;15.78;51.38;99835.94;5366187;26;20127;-81
2021/05/22 04:15:25;;;;;;;1.85;0.50;;;;;;;15.99;49.37;99843.09;5365917;26;20048;-81
2021/05/22 04:17:51;;;;;;;1.95;0.50;;;;;;;16.12;50.01;99847.03;5366456;26;20086;-80
2021/05/22 04:20:18;;;;;;;0.62;0.35;;;;;;;15.87;51.24;99854.13;5365523;26;20396;-80
2021/05/22 04:22:45;;;;;;;2.65;0.70;;;;;;;15.64;52.67;99847.81;5365742;26;20072;-80
2021/05/22 04:25:12;;;;;;;0.98;0.37;;;;;;;15.71;53.25;99847.69;5365831;26;20066;-80
2021/05/22 04:27:40;;;;;;;3.80;0.90;;;;;;;15.26;54.63;99851.81;5365390;26;20040;-80
2021/05/22 04:30:07;;;;;;;2.00;0.75;;;;;;;15.73;54.44;99854.63;5365333;26;20060;-80
2021/05/22 04:32:34;;;;;;;4.90;0.73;;;;;;;15.31;54.37;99852.53;5363776;26;20103;-80
2021/05/22 04:35:01;;;;;;;3.17;0.85;;;;;;;15.51;54.16;99846.53;5365734;26;20060;-80
2021/05/22 04:37:28;;;;;;;3.92;0.70;;;;;;;15.04;55.42;99843.72;5366019;26;20067;-80
2021/05/22 04:39:55;;;;;;;0.57;0.43;;;;;;;15.45;54.48;99837.03;5365247;26;20087;-80
2021/05/22 04:42:22;;;;;;;1.12;0.62;;;;;;;15.30;54.29;99836.72;5365519;26;20234;-80
2021/05/22 04:44:49;;;;;;;1.12;0.45;;;;;;;15.09;55.32;99835.63;5364843;26;20066;-80
2021/05/22 04:47:15;;;;;;;5.57;0.90;;;;;;;15.62;54.05;99836.44;5365031;26;20091;-79
2021/05/22 04:49:42;;;;;;;0.85;0.60;;;;;;;15.82;53.98;99838.38;5364906;26;20135;-80
2021/05/22 04:52:09;;;;;;;2.05;0.60;;;;;;;15.83;53.58;99841.94;5365244;26;20735;-81
2021/05/22 04:54:36;;;;;;;1.58;0.47;;;;;;;16.06;51.64;99836.66;5364885;26;20052;-79
2021/05/22 04:57:02;;;;;;;1.77;0.93;;;;;;;16.51;50.48;99842.91;5365415;26;20047;-80
2021/05/22 04:59:29;;;;;;;2.95;0.50;;;;;;;16.47;49.52;99826.25;5365057;26;20060;-80
2021/05/22 05:01:56;;;;;;;0.90;0.47;;;;;;;16.72;48.36;99831.44;5365848;26;20103;-80
2021/05/22 05:04:24;;;;;;;1.10;0.60;;;;;;;16.99;48.07;99831.28;5365372;26;20052;-80
2021/05/22 05:06:51;;;;;;;0.68;0.37;;;;;;;17.19;47.01;99835.75;5365226;26;20090;-80
2021/05/22 05:09:18;;;;;;;4.05;0.77;;;;;;;17.21;46.46;99836.56;5364706;26;20751;-81
2021/05/22 05:11:45;;;;;;;3.55;0.40;;;;;;;17.02;46.67;99842.63;5365373;26;20117;-81
2021/05/22 05:14:13;;;;;;;0.60;0.40;;;;;;;17.06;46.22;99839.84;5365319;26;20075;-81
2021/05/22 05:16:40;;;;;;;2.92;1.08;;;;;;;16.91;46.17;99850.19;5365412;26;20071;-81
2021/05/22 05:19:07;;;;;;;0.37;0.37;;;;;;;17.29;45.53;99850.38;5365453;26;20091;-80
2021/05/22 05:21:34;;;;;;;0.90;0.40;;;;;;;17.01;45.91;99862.13;5364754;26;20362;-81
2021/05/22 05:24:01;;;;;;;1.52;0.50;;;;;;;17.18;45.80;99863.25;5365036;26;20072;-80
2021/05/22 05:26:28;;;;;;;4.20;1.00;;;;;;;17.12;45.71;99863.47;5364900;26;20130;-81
2021/05/22 05:28:55;;;;;;;3.17;0.62;;;;;;;17.06;46.56;99863.72;5364811;26;20083;-82
2021/05/22 05:31:22;;;;;;;1.35;0.50;;;;;;;17.72;45.17;99851.19;5364508;26;20068;-81
2021/05/22 05:33:49;;;;;;;1.85;0.60;;;;;;;17.17;45.66;99856.19;5363957;26;20071;-80
2021/05/22 05:36:16;;;;;;;1.23;0.50;;;;;;;17.23;45.19;99866.56;5364718;26;20123;-80
2021/05/22 05:38:43;;;;;;;1.80;0.70;;;;;;;17.47;44.67;99869.97;5364860;26;20100;-80
2021/05/22 05:41:10;;;;;;;1.00;0.60;;;;;;;17.42;44.81;99880.78;5363078;26;20555;-80
2021/05/22 05:43:36;;;;;;;2.75;0.57;;;;;;;17.44;44.75;99875.41;5364709;26;20623;-80
2021/05/22 05:46:03;;;;;;;3.20;1.48;;;;;;;17.61;44.89;99875.56;5362786;26;20130;-80
2021/05/22 05:48:30;;;;;;;2.30;0.77;;;;;;;17.73;44.51;99886.59;5364588;26;20085;-81
2021/05/22 05:50:57;;;;;;;2.45;0.68;;;;;;;17.62;46.22;99887.94;5364519;26;20061;-80
2021/05/22 05:53:24;;;;;;;2.75;0.70;;;;;;;17.45;46.60;99888.63;5364616;26;20066;-79
2021/05/22 05:55:51;;;;;;;2.15;0.80;;;;;;;17.76;45.52;99883.78;5364328;26;20041;-81
2021/05/22 05:58:17;;;;;;;3.30;0.68;;;;;;;17.33;49.21;99889.16;5365089;26;20060;-81
2021/05/22 06:00:44;;;;;;;2.17;0.65;;;;;;;17.74;47.33;99893.66;5365595;26;20052;-80
2021/05/22 06:03:11;;;;;;;2.30;1.10;;;;;;;17.53;47.50;99892.75;5365500;26;20858;-80
2021/05/22 06:05:38;;;;;;;4.75;0.98;;;;;;;17.01;49.66;99893.97;5365205;26;20075;-80
2021/05/22 06:08:06;;;;;;;2.47;0.98;;;;;;;16.76;51.01;99896.72;5365785;26;20132;-80
2021/05/22 06:10:33;;;;;;;3.67;0.70;;;;;;;16.88;50.32;99897.19;5365247;26;20108;-80
2021/05/22 06:13:00;;;;;;;2.15;0.57;;;;;;;16.74;51.82;99895.06;5365598;26;20430;-80
2021/05/22 06:15:34;;;;;;;1.35;0.70;;;;;;;16.53;51.51;99888.78;5365565;26;20116;-80
2021/05/22 06:18:01;;;;;;;1.85;0.40;;;;;;;16.54;51.92;99907.28;5365783;26;20067;-80
2021/05/22 06:20:28;;;;;;;2.10;0.80;;;;;;;16.43;52.82;99904.19;5365504;26;20060;-80
2021/05/22 06:22:55;;;;;;;2.78;0.82;;;;;;;16.67;53.52;99904.16;5363841;26;20063;-80
2021/05/22 06:25:22;;;;;;;2.80;0.70;;;;;;;16.82;53.82;99906.25;5363715;26;20123;-80
2021/05/22 06:27:49;;;;;;;0.98;0.73;;;;;;;16.82;51.42;99902.72;5363648;26;20060;-80
2021/05/22 06:30:16;;;;;;;2.72;0.57;;;;;;;16.18;53.50;99919.25;5365755;26;20128;-81
2021/05/22 06:32:43;;;;;;;2.25;0.80;;;;;;;16.55;53.17;99914.31;5365521;26;20066;-80
2021/05/22 06:35:10;;;;;;;3.35;0.80;;;;;;;16.50;53.51;99907.44;5365642;26;20063;-80
2021/05/22 06:37:37;;;;;;;5.18;0.90;;;;;;;16.65;52.37;99909.53;5365357;26;20032;-80
2021/05/22 06:40:05;;;;;;;4.47;0.80;;;;;;;16.37;53.29;99916.81;5367998;26;20060;-80
2021/05/22 06:42:34;;;;;;;3.60;0.90;;;;;;;17.00;52.14;99917.91;5366149;26;20070;-80
2021/05/22 06:45:09;;;;;;;3.15;0.98;;;;;;;16.39;53.65;99920.28;5366229;26;20071;-81
2021/05/22 06:47:36;;;;;;;2.70;0.80;;;;;;;16.88;52.68;99913.97;5366001;26;20033;-80
2021/05/22 06:50:04;;;;;;;4.12;0.70;;;;;;;16.74;49.55;99903.88;5367834;26;20064;-81
2021/05/22 06:52:31;;;;;;;4.40;1.33;;;;;;;16.78;52.38;99902.00;5366003;26;20056;-80
2021/05/22 06:54:59;;;;;;;3.50;1.15;;;;;;;16.96;50.54;99903.91;5367871;26;20058;-81
2021/05/22 06:57:26;;;;;;;3.95;0.95;;;;;;;16.70;50.55;99898.75;5365207;26;20040;-81
2021/05/22 06:59:53;;;;;;;1.80;0.50;;;;;;;16.87;48.20;99922.00;5365549;26;20041;-81
2021/05/22 07:02:20;;;;;;;4.78;0.70;;;;;;;17.16;45.85;99915.53;5365427;26;20064;-80
2021/05/22 07:04:47;;;;;;;1.20;0.45;;;;;;;17.29;46.46;99919.41;5365758;26;20138;-80
2021/05/22 07:07:14;;;;;;;1.75;0.60;;;;;;;17.56;45.75;99922.72;5365471;26;20067;-81
2021/05/22 07:09:41;;;;;;;3.33;1.25;;;;;;;17.54;45.83;99924.56;5365587;26;20117;-81
2021/05/22 07:12:12;;;;;;;6.12;0.73;;;;;;;17.93;46.26;99923.81;5365458;26;20055;-81
2021/05/22 07:14:39;;;;;;;3.45;0.70;;;;;;;17.40;48.41;99927.78;5365835;26;20154;-81
2021/05/22 07:17:06;;;;;;;2.65;0.90;;;;;;;17.38;47.85;99926.13;5365983;26;20113;-81
2021/05/22 07:19:33;;;;;;;4.95;1.02;;;;;;;17.41;48.35;99934.84;5365599;26;20117;-81
2021/05/22 07:22:00;;;;;;;1.75;0.70;;;;;;;16.77;49.36;99932.97;5364838;26;20119;-81
2021/05/22 07:24:27;;;;;;;9.27;1.50;;;;;;;17.17;48.21;99939.34;5366068;26;20051;-80
2021/05/22 07:26:56;;;;;;;9.65;1.55;;;;;;;16.99;50.53;99940.09;5365425;26;20683;-81
2021/05/22 07:29:24;;;;;;;4.03;0.73;;;;;;;16.82;50.50;99935.44;5365292;26;20060;-80
2021/05/22 07:31:52;;;;;;;9.32;1.00;;;;;;;17.35;48.18;99935.06;5365171;26;20064;-81
2021/05/22 07:34:23;;;;;;;6.32;1.42;;;;;;;17.12;49.55;99937.78;5365800;26;20056;-80
2021/05/22 07:36:51;;;;;;;4.15;0.88;;;;;;;17.43;48.16;99943.59;5365669;26;20032;-82
2021/05/22 07:39:18;;;;;;;1.85;0.80;;;;;;;17.30;48.64;99944.19;5366335;26;20602;-81
2021/05/22 07:41:46;;;;;;;10.48;1.77;;;;;;;17.20;49.13;99952.50;5365904;26;20104;-81
2021/05/22 07:44:13;;;;;;;3.22;0.77;;;;;;;17.34;48.19;99951.94;5365561;26;20024;-81
2021/05/22 07:46:41;;;;;;;3.35;1.17;;;;;;;16.97;50.35;99964.03;5366324;26;20033;-81
2021/05/22 07:49:09;;;;;;;2.95;0.90;;;;;;;17.22;49.41;99966.59;5366106;26;20125;-81
2021/05/22 07:51:36;;;;;;;3.30;0.90;;;;;;;17.06;48.28;99969.91;5366134;26;20068;-81
2021/05/22 07:54:04;;;;;;;5.25;0.85;;;;;;;17.42;47.84;99978.19;5365900;26;20056;-81
2021/05/22 07:56:31;;;;;;;6.72;1.00;;;;;;;17.21;46.70;99972.81;5365653;26;20043;-81
2021/05/22 07:58:58;;;;;;;4.05;0.77;;;;;;;17.82;46.08;99979.22;5365409;26;20087;-81
2021/05/22 08:01:25;;;;;;;4.20;0.90;;;;;;;17.79;46.50;99976.69;5364610;26;20116;-80
2021/05/22 08:03:52;;;;;;;3.50;0.70;;;;;;;18.29;45.28;99974.50;5365166;26;20118;-81
2021/05/22 08:06:19;;;;;;;2.05;0.73;;;;;;;18.39;44.60;99970.50;5366805;26;20458;-80
2021/05/22 08:08:47;;;;;;;2.50;0.77;;;;;;;18.64;44.03;99968.53;5366643;26;20577;-80
2021/05/22 08:11:15;;;;;;;3.22;0.90;;;;;;;17.98;45.07;99971.47;5366603;26;20040;-80
2021/05/22 08:13:42;;;;;;;4.70;0.80;;;;;;;18.58;44.15;99982.97;5367629;26;20071;-81
2021/05/22 08:16:09;;;;;;;2.65;0.60;;;;;;;18.58;44.17;99985.63;5366684;26;20536;-80
2021/05/22 08:18:37;;;;;;;3.62;1.20;;;;;;;18.92;42.83;99978.81;5366365;26;20109;-80
2021/05/22 08:21:05;;;;;;;5.53;1.40;;;;;;;18.61;44.69;100001.47;5364745;26;20072;-80
2021/05/22 08:23:33;;;;;;;1.17;0.47;;;;;;;18.44;45.11;99990.72;5364365;26;20063;-81
2021/05/22 08:25:59;;;;;;;3.90;0.90;;;;;;;18.09;45.38;99996.66;5364492;26;20091;-81
2021/05/22 08:28:47;;;;;;;2.45;0.77;;;;;;;17.89;46.81;99994.84;5365480;26;20060;-80
2021/05/22 08:31:14;;;;;;;3.42;0.93;;;;;;;18.16;46.23;100002.56;5365857;26;20055;-80
2021/05/22 08:33:42;;;;;;;4.65;1.23;;;;;;;18.36;47.25;100005.22;5365757;26;20094;-80
2021/05/22 08:36:09;;;;;;;7.25;1.17;;;;;;;18.69;46.17;100012.63;5365679;26;20308;-82
2021/05/22 08:38:36;;;;;;;1.35;0.70;;;;;;;18.65;45.40;100003.06;5365564;26;20080;-81
2021/05/22 08:41:05;;;;;;;2.28;0.70;;;;;;;18.08;47.18;100005.56;5365721;26;20069;-81
2021/05/22 08:43:33;;;;;;;5.72;0.90;;;;;;;18.50;45.78;100012.59;5365474;26;20115;-81
2021/05/22 08:46:00;;;;;;;8.55;1.25;;;;;;;18.92;44.66;100018.75;5365403;26;20071;-81
2021/05/22 08:48:27;;;;;;;7.30;2.10;;;;;;;18.74;46.91;100016.00;5365420;26;20123;-80
2021/05/22 08:50:54;;;;;;;4.55;1.00;;;;;;;18.74;46.78;100020.44;5365359;26;20102;-80
2021/05/22 08:53:22;;;;;;;3.20;1.05;;;;;;;18.21;46.75;100021.00;5367653;26;20111;-81
2021/05/22 08:55:49;;;;;;;8.77;1.20;;;;;;;18.50;46.62;100022.34;5365570;26;20147;-81
2021/05/22 08:58:16;;;;;;;6.35;1.10;;;;;;;18.64;46.22;100024.41;5365673;26;20117;-81
2021/05/22 09:00:43;;;;;;;7.62;1.85;;;;;;;18.12;47.22;100025.78;5367423;26;20040;-81
2021/05/22 09:03:12;;;;;;;10.68;1.58;;;;;;;18.60;47.03;100037.00;5365427;26;20055;-80
2021/05/22 09:05:41;;;;;;;4.35;1.27;;;;;;;18.95;46.84;100056.72;5365596;26;20063;-81
2021/05/22 09:08:14;;;;;;;;;;;;;;;19.02;46.74;100047.50;5363781;26;20135;-81
2021/05/22 09:10:44;;;;;;;9.00;1.60;;;;;;;19.15;44.74;100054.91;5365698;26;20358;-80
2021/05/22 09:13:23;;;;;;;3.72;1.10;;;;;;;19.28;45.51;100048.97;5363694;26;20115;-81
2021/05/22 09:16:09;;;;;;;3.60;1.23;;;;;;;19.61;44.58;100045.59;5364972;26;20094;-81
2021/05/22 09:18:38;;;;;;;3.90;1.80;;;;;;;19.06;45.13;100056.25;5365585;26;20064;-81
2021/05/22 09:21:08;;;;;;;2.90;1.20;;;;;;;19.54;44.61;100054.84;5365281;26;20063;-81
2021/05/22 09:23:39;;;;;;;3.50;1.35;;;;;;;19.85;43.16;100061.37;5364756;26;20057;-80
2021/05/22 09:26:12;;;;;;;3.10;1.10;;;;;;;19.98;45.01;100064.31;5365174;26;20024;-81
2021/05/22 09:28:44;;;;;;;5.93;2.35;;;;;;;20.41;42.87;100063.84;5364791;26;20059;-81
2021/05/22 09:31:16;;;;;;;5.47;1.50;;;;;;;19.12;44.38;100066.59;5365034;26;20396;-81
2021/05/22 09:33:44;;;;;;;3.50;1.87;;;;;;;19.13;44.33;100065.66;5367418;26;20221;-81
2021/05/22 09:36:16;;;;;;;4.15;2.03;;;;;;;20.20;43.33;100064.94;5365416;26;20076;-81
2021/05/22 09:38:54;;;;;;;6.35;2.75;;;;;;;20.49;42.37;100068.78;5366584;26;20043;-82
2021/05/22 09:41:35;;;;;;;5.20;2.20;;;;;;;20.61;42.44;100065.50;5366157;26;20052;-82
2021/05/22 09:44:10;;;;;;;7.00;2.20;;;;;;;20.47;42.53;100064.47;5365286;26;20441;-82
2021/05/22 09:46:46;;;;;;;6.60;2.87;;;;;;;20.51;45.15;100056.22;5366325;26;20064;-82
2021/05/22 09:49:23;;;;;;;5.55;1.80;;;;;;;20.49;46.23;100075.91;5366401;26;20158;-81
2021/05/22 09:52:00;;;;;;;7.12;2.53;;;;;;;20.59;44.84;100066.53;5366274;26;20539;-82
2021/05/22 09:54:47;;;;;;;3.78;1.83;;;;;;;20.11;44.34;100068.06;5365612;26;20048;-81
2021/05/22 09:57:16;;;;;;;5.43;1.67;;;;;;;19.58;45.92;100060.87;5364550;26;20130;-81
2021/05/22 10:00:12;;;;;;;4.15;2.10;;;;;;;19.32;47.78;100051.47;5365141;26;20109;-81
2021/05/22 10:02:45;;;;;;;4.50;1.73;;;;;;;20.09;46.71;100054.81;5357085;26;20052;-81
2021/05/22 10:05:24;;;;;;;2.80;1.20;;;;;;;19.61;46.94;100056.28;5365912;26;20107;-82
2021/05/22 10:07:54;;;;;;;6.13;2.07;;;;;;;19.52;46.81;100048.72;5365676;26;20478;-81
2021/05/22 10:10:23;;;;;;;13.18;3.85;;;;;;;19.00;48.36;100069.81;5365426;26;20073;-81
2021/05/22 10:12:51;;;;;;;4.22;1.60;;;;;;;19.35;46.96;100064.66;5365585;26;20058;-81
2021/05/22 10:15:19;;;;;;;4.70;2.50;;;;;;;19.22;47.09;100067.91;5364824;26;20075;-82
2021/05/22 10:17:49;;;;;;;2.92;1.65;;;;;;;19.18;47.81;100073.44;5365633;26;20044;-81
2021/05/22 10:20:16;;;;;;;1.75;0.90;;;;;;;19.46;46.76;100067.66;5365091;26;20063;-81
2021/05/22 10:22:46;;;;;;;2.28;0.82;;;;;;;19.22;46.57;100083.88;5364888;26;20028;-81
2021/05/22 10:25:13;;;;;;;1.48;0.95;;;;;;;19.74;46.04;100072.56;5363745;26;20043;-81
2021/05/22 10:27:40;;;;;;;3.60;1.33;;;;;;;19.90;45.95;100084.19;5364935;26;20080;-81
2021/05/22 10:30:10;;;;;;;1.75;0.73;;;;;;;19.63;46.59;100086.38;5364328;26;20123;-81
2021/05/22 10:32:39;;;;;;;3.47;0.68;;;;;;;20.02;45.60;100092.53;5364608;26;20066;-81
2021/05/22 10:35:16;;;;;;;3.22;0.80;;;;;;;20.14;44.81;100084.78;5365128;26;20714;-81
2021/05/22 10:37:46;;;;;;;2.47;1.30;;;;;;;19.89;45.36;100097.63;5366404;26;20035;-81
2021/05/22 10:40:21;;;;;;;4.22;1.30;;;;;;;19.81;46.02;100084.66;5365884;26;20076;-81
2021/05/22 10:42:55;;;;;;;2.90;1.23;;;;;;;19.25;47.19;100086.38;5365937;26;20048;-81
2021/05/22 10:45:31;;;;;;;1.83;1.10;;;;;;;19.68;48.43;100081.72;5366924;26;20365;-82
2021/05/22 10:48:01;;;;;;;3.58;1.10;;;;;;;19.52;46.77;100081.56;5366232;26;20120;-81
2021/05/22 10:50:46;;;;;;;2.05;1.10;;;;;;;20.40;45.69;100082.59;5367226;26;20048;-81
2021/05/22 10:53:19;;;;;;;3.22;0.70;;;;;;;20.60;44.65;100078.94;5366356;26;20360;-81
2021/05/22 10:56:08;;;;;;;2.87;0.90;;;;;;;21.33;43.81;100090.12;5364901;26;20052;-81
2021/05/22 10:58:37;;;;;;;1.48;0.90;;;;;;;21.05;44.99;100088.97;5366328;26;20645;-82
2021/05/22 11:01:23;;;;;;;2.87;0.90;;;;;;;22.15;43.28;100094.44;5366054;26;20060;-82
2021/05/22 11:04:12;;;;;;;5.37;2.47;;;;;;;20.52;44.85;100092.66;5364420;26;20410;-82
2021/05/22 11:06:52;;;;;;;5.60;2.42;;;;;;;20.77;44.08;100086.06;5364195;26;20044;-82
2021/05/22 11:09:29;;;;;;;5.93;1.87;;;;;;;20.23;45.36;100091.44;5365351;26;20116;-82
2021/05/22 11:12:18;;;;;;;3.58;1.83;;;;;;;20.87;43.62;100081.94;5365669;26;20497;-81
2021/05/22 11:14:54;;;;;;;5.75;2.70;;;;;;;20.91;44.16;100087.97;5346439;26;20074;-81
2021/05/22 11:17:28;;;;;;;2.92;1.00;;;;;;;20.64;44.92;100102.69;5363270;26;20059;-82
2021/05/22 11:19:59;;;;;;;2.47;0.90;;;;;;;20.62;45.01;100093.94;5364773;26;20076;-82
2021/05/22 11:22:30;;;;;;;6.37;1.40;;;;;;;20.55;45.50;100096.97;5364815;26;20125;-82
2021/05/22 11:25:02;;;;;;;2.97;1.15;;;;;;;20.80;45.85;100113.47;5365122;26;20123;-81
2021/05/22 11:30:43;;;;;;;2.40;1.10;;;;;;;21.12;42.29;100105.53;5364871;26;20074;-82
2021/05/22 11:33:26;;;;;;;2.53;1.20;;;;;;;21.59;41.54;100106.56;5365676;26;20039;-81
2021/05/22 11:35:57;;;;;;;2.28;0.85;;;;;;;21.91;40.59;100110.97;5366961;26;20414;-82
2021/05/22 11:38:25;;;;;;;0.75;0.43;;;;;;;21.80;40.59;100117.88;5365576;26;20032;-82
2021/05/22 11:40:57;;;;;;;2.90;0.70;;;;;;;22.58;38.24;100124.03;5366164;26;20025;-82
2021/05/22 11:43:31;;;;;;;3.65;1.42;;;;;;;22.79;38.19;100106.66;5365804;26;20068;-82
2021/05/22 11:46:00;;;;;;;0.77;0.45;;;;;;;22.33;39.45;100106.75;5365172;26;20089;-82